Time;durP1;ratioP1;P1;durP2;ratioP2;P2;SDS_P1;SDS_P2;PMS_P1;PMS_P2;Temp;Humidity;BMP_temperature;BMP_pressure;BME280_temperature;BME280_humidity;BME280_pressure;Samples;Min_cycle;Max_cycle;Signal;HPM_P1;HPM_P2
2023/05/16 00:01:51;;;;;;;1.38;1.27;;;;;;;;;;12615783;23;20900;-92
2023/05/16 00:06:54;;;;;;;2.50;1.40;;;;;;;;;;12639134;23;20488;-92
2023/05/16 00:11:57;;;;;;;1.50;1.40;;;;;;;;;;12676909;23;20375;-92
2023/05/16 00:16:59;;;;;;;1.40;1.30;;;;;;;;;;12676724;23;20431;-92
2023/05/16 00:22:04;;;;;;;1.55;1.30;;;;;;;;;;12676629;23;20375;-91
2023/05/16 00:27:06;;;;;;;2.40;1.30;;;;;;;;;;12675514;23;20835;-92
2023/05/16 00:32:08;;;;;;;2.88;1.30;;;;;;;;;;12696485;23;20411;-92
2023/05/16 00:37:12;;;;;;;2.20;1.20;;;;;;;;;;12676874;23;20375;-92
2023/05/16 00:42:15;;;;;;;2.90;1.08;;;;;;;;;;12674261;23;20367;-92
2023/05/16 00:47:17;;;;;;;2.25;1.00;;;;;;;;;;12674246;23;20371;-93
2023/05/16 00:52:21;;;;;;;1.10;0.90;;;;;;;;;;12676801;23;20437;-91
2023/05/16 00:57:23;;;;;;;0.85;0.80;;;;;;;;;;12675063;23;20437;-90
2023/05/16 01:02:27;;;;;;;0.70;0.70;;;;;;;;;;12675606;23;20403;-91
2023/05/16 01:07:31;;;;;;;0.88;0.68;;;;;;;;;;12643867;23;20376;-92
2023/05/16 01:12:38;;;;;;;1.40;0.60;;;;;;;;;;12614788;23;20373;-92
2023/05/16 01:17:56;;;;;;;1.47;0.60;;;;;;;;;;12615511;23;20381;-91
2023/05/16 01:23:17;;;;;;;1.27;0.57;;;;;;;;;;12614610;23;20409;-92
2023/05/16 01:28:21;;;;;;;1.90;0.60;;;;;;;;;;12635360;23;20413;-92
2023/05/16 01:33:23;;;;;;;1.77;0.60;;;;;;;;;;12614209;23;20388;-90
2023/05/16 01:38:27;;;;;;;1.38;0.60;;;;;;;;;;12614223;23;20372;-91
2023/05/16 01:43:34;;;;;;;0.50;0.40;;;;;;;;;;12634970;23;20423;-91
2023/05/16 01:48:43;;;;;;;0.50;0.50;;;;;;;;;;12614556;23;20445;-91
2023/05/16 01:53:46;;;;;;;1.10;0.60;;;;;;;;;;12614449;23;20714;-92
2023/05/16 01:58:51;;;;;;;0.63;0.50;;;;;;;;;;12613742;23;20845;-92
2023/05/16 02:03:53;;;;;;;0.90;0.40;;;;;;;;;;12614311;23;20373;-91
2023/05/16 02:08:55;;;;;;;0.50;0.50;;;;;;;;;;12664906;23;20375;-91
2023/05/16 02:13:59;;;;;;;0.80;0.60;;;;;;;;;;12674482;23;20394;-91
2023/05/16 02:19:01;;;;;;;1.20;0.60;;;;;;;;;;12673048;23;20375;-91
2023/05/16 02:24:04;;;;;;;0.80;0.60;;;;;;;;;;12673746;23;20836;-91
2023/05/16 02:29:07;;;;;;;0.63;0.63;;;;;;;;;;12674785;23;20371;-92
2023/05/16 02:34:10;;;;;;;1.60;0.57;;;;;;;;;;12676223;23;20390;-91
2023/05/16 02:39:12;;;;;;;1.27;0.60;;;;;;;;;;12678643;23;20423;-91
2023/05/16 02:44:16;;;;;;;0.70;0.60;;;;;;;;;;12677727;23;20843;-92
2023/05/16 02:49:18;;;;;;;0.82;0.70;;;;;;;;;;12698777;23;20468;-90
2023/05/16 02:54:21;;;;;;;1.70;0.87;;;;;;;;;;12698268;23;20688;-90
2023/05/16 02:59:25;;;;;;;1.20;0.70;;;;;;;;;;12678717;23;20500;-91
2023/05/16 03:04:27;;;;;;;1.35;0.75;;;;;;;;;;12677614;23;20371;-91
2023/05/16 03:09:30;;;;;;;0.70;0.70;;;;;;;;;;12677701;23;20371;-92
2023/05/16 03:14:33;;;;;;;1.08;0.95;;;;;;;;;;12685671;23;20399;-91
2023/05/16 03:19:36;;;;;;;1.33;0.90;;;;;;;;;;12677786;23;20407;-91
2023/05/16 03:24:38;;;;;;;0.70;0.70;;;;;;;;;;12697790;23;20370;-91
2023/05/16 03:29:42;;;;;;;0.80;0.70;;;;;;;;;;12676931;23;20403;-91
2023/05/16 03:34:45;;;;;;;1.47;0.73;;;;;;;;;;12677951;23;20386;-92
2023/05/16 03:39:47;;;;;;;0.93;0.70;;;;;;;;;;12676292;23;20459;-92
2023/05/16 03:44:51;;;;;;;1.90;0.80;;;;;;;;;;12675507;23;20744;-91
2023/05/16 03:49:54;;;;;;;1.50;0.90;;;;;;;;;;12678548;23;20915;-91
2023/05/16 03:54:56;;;;;;;1.30;1.00;;;;;;;;;;12676862;23;20388;-92
2023/05/16 04:00:00;;;;;;;1.40;0.95;;;;;;;;;;12676830;23;20732;-90
2023/05/16 04:05:03;;;;;;;1.30;1.00;;;;;;;;;;12696428;23;20383;-91
2023/05/16 04:10:06;;;;;;;1.17;1.07;;;;;;;;;;12677049;23;20371;-91
2023/05/16 04:15:10;;;;;;;1.20;1.10;;;;;;;;;;12676175;23;20439;-92
2023/05/16 04:20:13;;;;;;;1.17;1.00;;;;;;;;;;12676861;23;20379;-91
2023/05/16 04:25:16;;;;;;;1.80;1.30;;;;;;;;;;12696488;23;20437;-91
2023/05/16 04:30:19;;;;;;;0.90;0.90;;;;;;;;;;12676483;23;20383;-91
2023/05/16 04:35:22;;;;;;;1.20;1.00;;;;;;;;;;12696513;23;20867;-91
2023/05/16 04:40:24;;;;;;;1.80;1.00;;;;;;;;;;12675063;23;20367;-91
2023/05/16 04:45:28;;;;;;;1.53;1.00;;;;;;;;;;12672161;23;20382;-91
2023/05/16 04:50:30;;;;;;;1.33;1.07;;;;;;;;;;12694163;23;20379;-92
2023/05/16 04:55:32;;;;;;;1.10;1.00;;;;;;;;;;12688658;23;20454;-91
2023/05/16 05:00:37;;;;;;;4.20;1.25;;;;;;;;;;12674862;23;20403;-91
2023/05/16 05:05:39;;;;;;;1.10;1.00;;;;;;;;;;12674948;23;20390;-89
2023/05/16 05:10:42;;;;;;;1.20;1.10;;;;;;;;;;12672166;23;20379;-90
2023/05/16 05:15:46;;;;;;;1.80;1.40;;;;;;;;;;12674850;23;20390;-89
2023/05/16 05:20:48;;;;;;;1.63;1.52;;;;;;;;;;12674981;23;20375;-91
2023/05/16 05:25:51;;;;;;;2.45;1.70;;;;;;;;;;12675139;23;20359;-91
2023/05/16 05:30:54;;;;;;;3.90;2.30;;;;;;;;;;12674078;23;20812;-92
2023/05/16 05:35:57;;;;;;;2.07;1.40;;;;;;;;;;12676275;23;20390;-94
2023/05/16 05:40:59;;;;;;;1.50;1.27;;;;;;;;;;12692081;23;20371;-92
2023/05/16 05:46:03;;;;;;;2.03;1.50;;;;;;;;;;12673726;23;20423;-92
2023/05/16 05:51:05;;;;;;;2.25;1.70;;;;;;;;;;12674351;23;20379;-93
2023/05/16 05:56:08;;;;;;;3.88;1.70;;;;;;;;;;12673273;23;20387;-92
2023/05/16 06:01:12;;;;;;;2.40;1.20;;;;;;;;;;12665979;23;20446;-91
2023/05/16 06:06:15;;;;;;;1.58;1.10;;;;;;;;;;12657767;23;20377;-90
2023/05/16 06:11:17;;;;;;;3.40;1.30;;;;;;;;;;12614030;23;20377;-91
2023/05/16 06:16:24;;;;;;;2.03;1.25;;;;;;;;;;12614633;23;20376;-91
2023/05/16 06:21:26;;;;;;;1.65;1.25;;;;;;;;;;12614433;23;20422;-89
2023/05/16 06:26:29;;;;;;;1.50;1.08;;;;;;;;;;12613975;23;20373;-91
2023/05/16 06:31:32;;;;;;;2.80;1.10;;;;;;;;;;12614183;23;20377;-90
2023/05/16 06:36:35;;;;;;;2.33;1.10;;;;;;;;;;12612301;23;20393;-91
2023/05/16 06:41:37;;;;;;;2.20;1.37;;;;;;;;;;12611008;23;20432;-91
2023/05/16 06:46:41;;;;;;;1.55;1.23;;;;;;;;;;12613558;23;20376;-92
2023/05/16 06:51:43;;;;;;;2.67;1.33;;;;;;;;;;12614611;23;20380;-91
2023/05/16 06:56:45;;;;;;;3.90;1.30;;;;;;;;;;12613416;23;20392;-91
2023/05/16 07:01:49;;;;;;;3.75;1.42;;;;;;;;;;12613261;23;20409;-91
2023/05/16 07:06:51;;;;;;;2.05;1.40;;;;;;;;;;12638339;23;20379;-90
2023/05/16 07:11:54;;;;;;;2.25;1.50;;;;;;;;;;12674571;23;20430;-89
2023/05/16 07:16:57;;;;;;;2.55;1.38;;;;;;;;;;12673830;23;20426;-92
2023/05/16 07:21:59;;;;;;;3.23;1.43;;;;;;;;;;12677920;23;20816;-90
2023/05/16 07:27:02;;;;;;;3.03;2.30;;;;;;;;;;12677334;23;20375;-90
2023/05/16 07:32:07;;;;;;;3.30;1.60;;;;;;;;;;12676383;23;20403;-92
2023/05/16 07:37:11;;;;;;;3.03;1.58;;;;;;;;;;12695268;23;20712;-92
2023/05/16 07:42:13;;;;;;;3.67;1.90;;;;;;;;;;12674919;23;20777;-89
2023/05/16 07:47:17;;;;;;;3.28;1.80;;;;;;;;;;12676134;23;20379;-91
2023/05/16 07:52:20;;;;;;;2.85;1.80;;;;;;;;;;12695274;23;20375;-90
2023/05/16 07:57:22;;;;;;;3.17;1.90;;;;;;;;;;12676967;23;20422;-91
2023/05/16 08:02:29;;;;;;;2.60;1.88;;;;;;;;;;12677485;23;20902;-90
2023/05/16 08:07:31;;;;;;;2.25;1.90;;;;;;;;;;12696243;23;20410;-91
2023/05/16 08:12:33;;;;;;;3.58;1.92;;;;;;;;;;12676652;23;20376;-90
2023/05/16 08:17:37;;;;;;;4.40;1.97;;;;;;;;;;12674411;23;20391;-91
2023/05/16 08:22:39;;;;;;;3.50;2.53;;;;;;;;;;12694642;23;20379;-89
2023/05/16 08:27:44;;;;;;;3.80;2.60;;;;;;;;;;12674851;23;20379;-90
2023/05/16 08:32:47;;;;;;;3.83;2.60;;;;;;;;;;12674099;23;20526;-90
2023/05/16 08:37:50;;;;;;;3.97;2.60;;;;;;;;;;12674196;23;20540;-90
2023/05/16 08:42:52;;;;;;;2.42;2.20;;;;;;;;;;12673449;23;20426;-92
2023/05/16 08:47:56;;;;;;;3.28;2.42;;;;;;;;;;12675955;23;20616;-92
2023/05/16 08:53:05;;;;;;;3.77;2.80;;;;;;;;;;12676271;23;20490;-91
2023/05/16 08:58:07;;;;;;;3.58;2.47;;;;;;;;;;12696082;23;20760;-91
2023/05/16 09:03:11;;;;;;;4.45;1.95;;;;;;;;;;12674234;23;20371;-90
2023/05/16 09:08:13;;;;;;;4.33;2.57;;;;;;;;;;12670777;23;20434;-90
2023/05/16 09:13:15;;;;;;;4.32;2.60;;;;;;;;;;12667938;23;20379;-92
2023/05/16 09:18:21;;;;;;;3.08;1.65;;;;;;;;;;12671262;23;20394;-91
2023/05/16 09:23:24;;;;;;;1.55;1.35;;;;;;;;;;12673406;23;20445;-92
2023/05/16 09:28:27;;;;;;;3.70;1.00;;;;;;;;;;12669878;23;20375;-90
2023/05/16 09:33:31;;;;;;;2.15;1.00;;;;;;;;;;12674930;23;20375;-89
2023/05/16 09:38:33;;;;;;;5.73;1.10;;;;;;;;;;12671378;23;20395;-90
2023/05/16 09:43:38;;;;;;;1.25;1.10;;;;;;;;;;12671131;23;20383;-89
2023/05/16 09:48:45;;;;;;;2.30;1.60;;;;;;;;;;12672535;23;20371;-89
2023/05/16 09:53:47;;;;;;;1.80;1.30;;;;;;;;;;12674783;23;20371;-89
2023/05/16 09:58:52;;;;;;;1.83;1.20;;;;;;;;;;12673259;23;20391;-89
2023/05/16 10:03:55;;;;;;;1.87;1.53;;;;;;;;;;12692129;23;20375;-90
2023/05/16 10:08:59;;;;;;;2.07;1.30;;;;;;;;;;12673470;23;20855;-90
2023/05/16 10:14:03;;;;;;;3.45;1.33;;;;;;;;;;12673963;23;20371;-89
2023/05/16 10:19:06;;;;;;;2.90;1.25;;;;;;;;;;12673576;23;20386;-90
2023/05/16 10:24:11;;;;;;;1.02;0.80;;;;;;;;;;12683670;23;20379;-91
2023/05/16 10:29:14;;;;;;;1.27;0.80;;;;;;;;;;12674133;23;20442;-90
2023/05/16 10:34:18;;;;;;;0.75;0.60;;;;;;;;;;12673563;23;20449;-89
2023/05/16 10:39:21;;;;;;;1.80;0.70;;;;;;;;;;12673553;23;20419;-90
2023/05/16 10:44:23;;;;;;;2.28;0.73;;;;;;;;;;12693753;23;20374;-89
2023/05/16 10:49:27;;;;;;;1.65;0.60;;;;;;;;;;12673756;23;20371;-91
2023/05/16 10:54:35;;;;;;;0.55;0.55;;;;;;;;;;12675809;23;20371;-91
2023/05/16 10:59:42;;;;;;;0.80;0.30;;;;;;;;;;12679544;23;20395;-90
2023/05/16 11:04:50;;;;;;;1.60;1.00;;;;;;;;;;12698358;23;20370;-91
2023/05/16 11:10:06;;;;;;;0.30;0.30;;;;;;;;;;12676473;23;20426;-90
2023/05/16 11:15:23;;;;;;;1.38;0.70;;;;;;;;;;12676816;23;20375;-90
2023/05/16 11:20:28;;;;;;;0.73;0.40;;;;;;;;;;12677154;23;20371;-91
2023/05/16 11:25:38;;;;;;;0.63;0.40;;;;;;;;;;12675575;23;20426;-90
2023/05/16 11:30:43;;;;;;;0.60;0.50;;;;;;;;;;12673371;23;20382;-91
2023/05/16 11:36:00;;;;;;;2.42;0.40;;;;;;;;;;12666445;23;20457;-90
2023/05/16 11:41:04;;;;;;;0.90;0.32;;;;;;;;;;12691602;23;20496;-90
2023/05/16 11:46:06;;;;;;;0.55;0.32;;;;;;;;;;12670734;23;20779;-89
2023/05/16 11:51:13;;;;;;;0.77;0.40;;;;;;;;;;12670064;23;20740;-88
2023/05/16 11:56:15;;;;;;;1.20;0.40;;;;;;;;;;12666405;23;20437;-90
2023/05/16 12:01:18;;;;;;;0.80;0.30;;;;;;;;;;12666836;23;20379;-88
2023/05/16 12:06:21;;;;;;;0.47;0.30;;;;;;;;;;12640638;23;20432;-89
2023/05/16 12:11:24;;;;;;;1.10;0.20;;;;;;;;;;12611260;23;20632;-93
2023/05/16 12:16:27;;;;;;;0.80;0.30;;;;;;;;;;12612159;23;20400;-90
2023/05/16 12:21:31;;;;;;;0.20;0.20;;;;;;;;;;12631181;23;20494;-88
2023/05/16 12:26:33;;;;;;;0.80;0.20;;;;;;;;;;12630232;23;20381;-89
2023/05/16 12:31:37;;;;;;;0.43;0.30;;;;;;;;;;12612279;23;20368;-89
2023/05/16 12:36:42;;;;;;;0.90;0.20;;;;;;;;;;12608873;23;20476;-90
2023/05/16 12:41:44;;;;;;;0.57;0.20;;;;;;;;;;12626219;23;20841;-88
2023/05/16 12:46:50;;;;;;;1.42;0.30;;;;;;;;;;12608351;23;20413;-89
2023/05/16 12:51:58;;;;;;;0.68;0.30;;;;;;;;;;12609533;23;20369;-88
2023/05/16 12:57:01;;;;;;;0.45;0.32;;;;;;;;;;12603386;23;20472;-87
2023/05/16 13:02:03;;;;;;;0.63;0.40;;;;;;;;;;12628423;23;20679;-88
2023/05/16 13:07:07;;;;;;;1.55;0.90;;;;;;;;;;12636330;23;20379;-89
2023/05/16 13:12:10;;;;;;;1.95;0.50;;;;;;;;;;12670345;23;20375;-89
2023/05/16 13:17:12;;;;;;;1.10;0.20;;;;;;;;;;12669299;23;20891;-89
2023/05/16 13:22:16;;;;;;;0.60;0.23;;;;;;;;;;12669889;23;20367;-89
2023/05/16 13:27:18;;;;;;;1.90;0.30;;;;;;;;;;12669230;23;20379;-89
2023/05/16 13:32:20;;;;;;;1.45;0.38;;;;;;;;;;12668082;23;20371;-88
2023/05/16 13:37:24;;;;;;;1.40;0.60;;;;;;;;;;12668996;23;20419;-88
2023/05/16 13:42:27;;;;;;;0.50;0.30;;;;;;;;;;12665980;23;20450;-89
2023/05/16 13:47:29;;;;;;;1.25;0.30;;;;;;;;;;12666760;23;20371;-89
2023/05/16 13:52:33;;;;;;;0.60;0.40;;;;;;;;;;12666688;23;20441;-87
2023/05/16 13:57:35;;;;;;;1.27;0.30;;;;;;;;;;12666936;23;20387;-88
2023/05/16 14:02:37;;;;;;;0.87;0.30;;;;;;;;;;12667455;23;20439;-88
2023/05/16 14:07:41;;;;;;;1.83;0.60;;;;;;;;;;12665334;23;20430;-88
2023/05/16 14:12:43;;;;;;;0.88;0.47;;;;;;;;;;12663456;23;20434;-88
2023/05/16 14:17:46;;;;;;;1.20;0.40;;;;;;;;;;12665355;23;20465;-89
2023/05/16 14:22:50;;;;;;;0.95;0.40;;;;;;;;;;12688769;23;20375;-89
2023/05/16 14:27:52;;;;;;;0.68;0.30;;;;;;;;;;12667322;23;20375;-89
2023/05/16 14:32:55;;;;;;;0.77;0.30;;;;;;;;;;12668461;23;20375;-88
2023/05/16 14:37:58;;;;;;;1.13;0.20;;;;;;;;;;12663240;23;20403;-89
2023/05/16 14:43:03;;;;;;;0.43;0.30;;;;;;;;;;12666154;23;20375;-88
2023/05/16 14:48:06;;;;;;;1.00;0.40;;;;;;;;;;12661451;23;20871;-89
2023/05/16 14:53:10;;;;;;;0.67;0.23;;;;;;;;;;12681333;23;20371;-88
2023/05/16 14:58:13;;;;;;;0.60;0.30;;;;;;;;;;12658549;23;20467;-89
2023/05/16 15:03:16;;;;;;;2.00;0.40;;;;;;;;;;12660195;23;20367;-88
2023/05/16 15:08:21;;;;;;;0.83;0.40;;;;;;;;;;12656422;23;20407;-90
2023/05/16 15:13:23;;;;;;;1.65;0.40;;;;;;;;;;12664213;23;20399;-88
2023/05/16 15:18:25;;;;;;;2.05;0.70;;;;;;;;;;12658076;23;20426;-90
2023/05/16 15:23:29;;;;;;;2.00;0.57;;;;;;;;;;12661797;23;20386;-89
2023/05/16 15:28:32;;;;;;;0.93;0.50;;;;;;;;;;12654845;23;20504;-90
2023/05/16 15:33:34;;;;;;;1.02;0.40;;;;;;;;;;12651155;23;20367;-91
2023/05/16 15:38:42;;;;;;;0.60;0.37;;;;;;;;;;12653679;23;20426;-90
2023/05/16 15:43:45;;;;;;;0.43;0.40;;;;;;;;;;12663487;23;20387;-88
2023/05/16 15:48:47;;;;;;;0.98;0.40;;;;;;;;;;12657958;23;20386;-90
2023/05/16 15:53:51;;;;;;;0.73;0.30;;;;;;;;;;12659083;23;20441;-90
2023/05/16 15:58:55;;;;;;;2.50;0.50;;;;;;;;;;12660403;23;20395;-90
2023/05/16 16:03:58;;;;;;;0.30;0.20;;;;;;;;;;12635891;23;20902;-91
2023/05/16 16:09:02;;;;;;;1.37;0.50;;;;;;;;;;12669505;23;20863;-91
2023/05/16 16:14:07;;;;;;;1.40;0.60;;;;;;;;;;12669612;23;20387;-91
2023/05/16 16:19:09;;;;;;;1.42;0.40;;;;;;;;;;12667793;23;20524;-89
2023/05/16 16:24:13;;;;;;;1.30;0.50;;;;;;;;;;12668227;23;20418;-90
2023/05/16 16:29:16;;;;;;;3.03;0.60;;;;;;;;;;12669396;23;20386;-90
2023/05/16 16:34:18;;;;;;;1.60;0.47;;;;;;;;;;12664231;23;20434;-90
2023/05/16 16:39:22;;;;;;;0.40;0.40;;;;;;;;;;12666999;23;20391;-92
2023/05/16 16:44:24;;;;;;;3.42;0.75;;;;;;;;;;12668120;23;20387;-91
2023/05/16 16:49:27;;;;;;;1.10;0.60;;;;;;;;;;12667472;23;20379;-93
2023/05/16 16:54:30;;;;;;;0.93;0.50;;;;;;;;;;12667723;23;20867;-91
2023/05/16 16:59:32;;;;;;;1.20;0.60;;;;;;;;;;12670047;23;20453;-90
2023/05/16 17:04:35;;;;;;;1.23;0.47;;;;;;;;;;12668308;23;20383;-91
2023/05/16 17:09:41;;;;;;;2.20;0.68;;;;;;;;;;12669888;23;20415;-90
2023/05/16 17:14:43;;;;;;;2.90;1.15;;;;;;;;;;12669434;23;20391;-91
2023/05/16 17:19:46;;;;;;;3.95;1.75;;;;;;;;;;12665193;23;20395;-90
2023/05/16 17:24:50;;;;;;;2.03;1.48;;;;;;;;;;12666451;23;20442;-90
2023/05/16 17:29:52;;;;;;;1.33;0.90;;;;;;;;;;12666673;23;20387;-89
2023/05/16 17:34:55;;;;;;;2.97;2.33;;;;;;;;;;12666546;23;20415;-89
2023/05/16 17:39:59;;;;;;;1.95;1.77;;;;;;;;;;12666716;23;20391;-89
2023/05/16 17:45:03;;;;;;;3.33;1.92;;;;;;;;;;12667508;23;20403;-89
2023/05/16 17:50:07;;;;;;;3.33;1.90;;;;;;;;;;12666849;23;20991;-89
2023/05/16 17:55:11;;;;;;;3.88;2.55;;;;;;;;;;12667065;23;20416;-90
2023/05/16 18:00:14;;;;;;;4.10;3.20;;;;;;;;;;12667347;23;20391;-89
2023/05/16 18:05:17;;;;;;;6.93;3.60;;;;;;;;;;12658765;23;20386;-93
2023/05/16 18:10:21;;;;;;;4.90;2.35;;;;;;;;;;12605092;23;20384;-90
2023/05/16 18:15:23;;;;;;;2.25;1.98;;;;;;;;;;12601177;23;20499;-90
2023/05/16 18:20:26;;;;;;;4.90;2.10;;;;;;;;;;12604861;23;20396;-90
2023/05/16 18:25:30;;;;;;;4.85;2.30;;;;;;;;;;12606249;23;20381;-89
2023/05/16 18:30:35;;;;;;;2.88;2.13;;;;;;;;;;12605476;23;20384;-91
2023/05/16 18:35:37;;;;;;;3.58;2.17;;;;;;;;;;12605219;23;20381;-90
2023/05/16 18:40:46;;;;;;;3.42;2.28;;;;;;;;;;12607080;23;20393;-92
2023/05/16 18:45:49;;;;;;;4.30;2.83;;;;;;;;;;12607418;23;20369;-89
2023/05/16 18:50:51;;;;;;;5.40;3.60;;;;;;;;;;12605548;23;20468;-91
2023/05/16 18:55:55;;;;;;;4.68;2.97;;;;;;;;;;12606184;23;20388;-89
2023/05/16 19:00:57;;;;;;;6.55;4.10;;;;;;;;;;12606347;23;20801;-90
2023/05/16 19:05:59;;;;;;;6.27;3.33;;;;;;;;;;12618781;23;20446;-90
2023/05/16 19:11:03;;;;;;;6.88;3.75;;;;;;;;;;12666486;23;20383;-90
2023/05/16 19:16:06;;;;;;;4.83;3.40;;;;;;;;;;12666861;23;20852;-90
2023/05/16 19:21:09;;;;;;;4.20;3.30;;;;;;;;;;12671048;23;20454;-89
2023/05/16 19:26:13;;;;;;;3.93;2.93;;;;;;;;;;12671390;23;20974;-90
2023/05/16 19:31:16;;;;;;;3.78;2.90;;;;;;;;;;12670429;23;20390;-89
2023/05/16 19:36:18;;;;;;;4.63;3.03;;;;;;;;;;12671500;23;20367;-91
2023/05/16 19:41:23;;;;;;;5.63;3.65;;;;;;;;;;12670211;23;20423;-91
2023/05/16 19:46:25;;;;;;;4.82;3.90;;;;;;;;;;12671109;23;20367;-90
2023/05/16 19:51:28;;;;;;;4.70;3.47;;;;;;;;;;12671732;23;20712;-91
2023/05/16 19:56:31;;;;;;;6.60;3.55;;;;;;;;;;12671408;23;20443;-90
2023/05/16 20:01:34;;;;;;;5.63;3.30;;;;;;;;;;12671236;23;21087;-90
2023/05/16 20:06:36;;;;;;;5.22;3.13;;;;;;;;;;12649172;23;20388;-90
2023/05/16 20:11:40;;;;;;;4.85;3.00;;;;;;;;;;12605972;23;20455;-90
2023/05/16 20:16:43;;;;;;;4.50;2.93;;;;;;;;;;12608278;23;20506;-91
2023/05/16 20:21:45;;;;;;;3.80;2.80;;;;;;;;;;12608143;23;20424;-90
2023/05/16 20:26:49;;;;;;;5.00;2.53;;;;;;;;;;12608480;23;20472;-90
2023/05/16 20:31:51;;;;;;;3.40;2.43;;;;;;;;;;12608289;23;20447;-91
2023/05/16 20:36:53;;;;;;;3.80;2.23;;;;;;;;;;12608268;23;20766;-89
2023/05/16 20:41:57;;;;;;;3.65;2.97;;;;;;;;;;12609091;23;20397;-91
2023/05/16 20:47:00;;;;;;;7.15;5.57;;;;;;;;;;12607614;23;20432;-91
2023/05/16 20:52:03;;;;;;;6.47;4.50;;;;;;;;;;12609310;23;20381;-91
2023/05/16 20:57:07;;;;;;;4.68;3.33;;;;;;;;;;12606951;23;20384;-90
2023/05/16 21:02:09;;;;;;;3.72;3.15;;;;;;;;;;12606177;23;20396;-91
2023/05/16 21:07:12;;;;;;;2.80;2.60;;;;;;;;;;12630399;23;20442;-90
2023/05/16 21:12:15;;;;;;;5.93;4.03;;;;;;;;;;12666962;23;20390;-91
2023/05/16 21:17:18;;;;;;;14.20;8.10;;;;;;;;;;12663453;23;20379;-90
2023/05/16 21:22:20;;;;;;;6.55;3.53;;;;;;;;;;12667630;23;20945;-92
2023/05/16 21:27:23;;;;;;;6.80;3.30;;;;;;;;;;12668499;23;20941;-89
2023/05/16 21:32:30;;;;;;;4.45;3.45;;;;;;;;;;12667728;23;20383;-91
2023/05/16 21:37:32;;;;;;;6.85;3.80;;;;;;;;;;12669002;23;20383;-90
2023/05/16 21:42:36;;;;;;;5.93;3.90;;;;;;;;;;12669822;23;20760;-90
2023/05/16 21:47:39;;;;;;;5.17;3.53;;;;;;;;;;12669267;23;20371;-91
2023/05/16 21:52:41;;;;;;;5.88;4.32;;;;;;;;;;12668592;23;20383;-91
2023/05/16 21:57:45;;;;;;;4.93;3.35;;;;;;;;;;12668678;23;20375;-89
2023/05/16 22:02:48;;;;;;;6.13;3.87;;;;;;;;;;12667916;23;20395;-91
2023/05/16 22:07:50;;;;;;;4.30;3.80;;;;;;;;;;12667467;23;20387;-90
2023/05/16 22:12:53;;;;;;;6.38;3.72;;;;;;;;;;12675070;23;20376;-90
2023/05/16 22:17:56;;;;;;;5.57;3.83;;;;;;;;;;12675515;23;20445;-90
2023/05/16 22:22:58;;;;;;;6.35;4.05;;;;;;;;;;12674303;23;20387;-90
2023/05/16 22:28:02;;;;;;;7.15;4.00;;;;;;;;;;12674952;23;20371;-91
2023/05/16 22:33:04;;;;;;;5.30;3.87;;;;;;;;;;12674060;23;20423;-90
2023/05/16 22:38:07;;;;;;;4.72;3.80;;;;;;;;;;12674745;23;20375;-89
2023/05/16 22:43:10;;;;;;;8.23;3.85;;;;;;;;;;12675024;23;20394;-90
2023/05/16 22:48:12;;;;;;;6.70;4.60;;;;;;;;;;12674750;23;20367;-90
2023/05/16 22:53:15;;;;;;;6.53;4.70;;;;;;;;;;12677621;23;20371;-90
2023/05/16 22:58:18;;;;;;;5.65;4.07;;;;;;;;;;12674126;23;20700;-90
2023/05/16 23:03:20;;;;;;;5.50;4.10;;;;;;;;;;12675467;23;20469;-89
2023/05/16 23:08:23;;;;;;;6.03;4.60;;;;;;;;;;12665352;23;20938;-82
2023/05/16 23:13:26;;;;;;;6.38;4.60;;;;;;;;;;12664013;23;20399;-82
2023/05/16 23:18:29;;;;;;;5.80;4.55;;;;;;;;;;12669572;23;20375;-84
2023/05/16 23:23:31;;;;;;;5.17;4.67;;;;;;;;;;12671119;23;20446;-85
2023/05/16 23:28:34;;;;;;;7.88;4.68;;;;;;;;;;12671088;23;20371;-84
2023/05/16 23:33:37;;;;;;;6.00;4.53;;;;;;;;;;12671133;23;20379;-84
2023/05/16 23:38:39;;;;;;;5.18;4.47;;;;;;;;;;12669636;23;20371;-85
2023/05/16 23:43:42;;;;;;;6.20;4.30;;;;;;;;;;12670080;23;20952;-84
2023/05/16 23:48:45;;;;;;;4.35;3.95;;;;;;;;;;12670479;23;20399;-85
2023/05/16 23:53:47;;;;;;;5.47;3.60;;;;;;;;;;12671322;23;20457;-83
2023/05/16 23:58:50;;;;;;;6.10;3.67;;;;;;;;;;12670592;23;20368;-85
